Time;durP1;ratioP1;P1;durP2;ratioP2;P2;SDS_P1;SDS_P2;PMS_P1;PMS_P2;Temp;Humidity;BMP_temperature;BMP_pressure;BME280_temperature;BME280_humidity;BME280_pressure;Samples;Min_cycle;Max_cycle;Signal;HPM_P1;HPM_P2
2021/12/24 00:01:09;;;;;;;;;;;;;;;;;;5055993;28;20007;-72
2021/12/24 00:03:34;;;;;;;;;;;;;;;;;;5055463;28;19981;-72
2021/12/24 00:06:01;;;;;;;;;;;;;;;;;;5055475;28;20445;-73
2021/12/24 00:08:26;;;;;;;;;;;;;;;;;;5053243;28;19923;-73
2021/12/24 00:10:59;;;;;;;;;;;;;;;;;;5054485;28;19917;-73
2021/12/24 00:13:24;;;;;;;;;;;;;;;;;;5037809;28;20023;-73
2021/12/24 00:16:18;;;;;;;;;;;;;;;;;;5053007;28;20023;-73
2021/12/24 00:37:32;;;;;;;;;;;;;;;;;;5053864;28;19927;-73
2021/12/24 00:42:29;;;;;;;;;;;;;;;;;;5055018;28;19924;-73
2021/12/24 00:44:55;;;;;;;;;;;;;;;;;;5054877;28;19916;-73
2021/12/24 00:47:20;;;;;;;;;;;;;;;;;;5054806;28;20301;-72
2021/12/24 00:49:46;;;;;;;;;;;;;;;;;;5053396;28;19963;-73
2021/12/24 00:57:49;;;;;;;;;;;;;;;;;;4993444;28;20372;-73
2021/12/24 01:00:15;;;;;;;;;;;;;;;;;;5038221;28;20330;-73
2021/12/24 01:02:41;;;;;;;;;;;;;;;;;;5054170;28;20008;-73
2021/12/24 01:05:08;;;;;;;;;;;;;;;;;;5052020;28;19924;-73
2021/12/24 01:07:36;;;;;;;;;;;;;;;;;;5053311;28;19920;-73
2021/12/24 01:10:01;;;;;;;;;;;;;;;;;;5054612;28;19950;-73
2021/12/24 01:12:27;;;;;;;;;;;;;;;;;;5053548;28;19960;-73
2021/12/24 01:14:52;;;;;;;;;;;;;;;;;;5053285;28;19921;-73
2021/12/24 01:17:31;;;;;;;;;;;;;;;;;;5052884;28;19972;-73
2021/12/24 01:20:03;;;;;;;;;;;;;;;;;;5053904;28;19916;-73
2021/12/24 01:38:24;;;;;;;;;;;;;;;;;;5052469;28;19917;-74
2021/12/24 01:43:19;;;;;;;;;;;;;;;;;;5053945;28;19924;-73
2021/12/24 01:45:49;;;;;;;;;;;;;;;;;;5053542;28;19928;-73
2021/12/24 01:48:15;;;;;;;;;;;;;;;;;;5053776;28;19975;-74
2021/12/24 01:50:46;;;;;;;;;;;;;;;;;;5051576;28;19967;-73
2021/12/24 01:53:13;;;;;;;;;;;;;;;;;;5035658;28;20402;-73
2021/12/24 01:55:40;;;;;;;;;;;;;;;;;;5052289;28;20326;-73
2021/12/24 01:58:07;;;;;;;;;;;;;;;;;;5052549;28;19967;-73
2021/12/24 02:00:37;;;;;;;;;;;;;;;;;;5053691;28;19960;-73
2021/12/24 02:03:03;;;;;;;;;;;;;;;;;;5052182;28;19921;-73
2021/12/24 02:05:31;;;;;;;;;;;;;;;;;;5052299;28;19924;-73
2021/12/24 02:07:57;;;;;;;;;;;;;;;;;;5052356;28;19928;-73
2021/12/24 02:10:22;;;;;;;;;;;;;;;;;;5052365;28;19917;-73
2021/12/24 02:12:48;;;;;;;;;;;;;;;;;;5052063;28;19925;-73
2021/12/24 02:15:26;;;;;;;;;;;;;;;;;;5035610;28;19917;-73
2021/12/24 02:28:52;;;;;;;;;;;;;;;;;;5053117;28;19916;-73
2021/12/24 02:31:20;;;;;;;;;;;;;;;;;;5052142;28;19966;-73
2021/12/24 02:33:45;;;;;;;;;;;;;;;;;;5054957;28;20015;-73
2021/12/24 02:36:11;;;;;;;;;;;;;;;;;;5057111;28;20003;-73
2021/12/24 02:38:38;;;;;;;;;;;;;;;;;;5056123;28;19916;-73
2021/12/24 02:41:04;;;;;;;;;;;;;;;;;;5056201;28;19921;-73
2021/12/24 02:43:30;;;;;;;;;;;;;;;;;;5056161;28;20088;-73
2021/12/24 02:45:59;;;;;;;;;;;;;;;;;;5055985;28;19967;-73
2021/12/24 02:48:55;;;;;;;;;;;;;;;;;;5057166;28;19921;-73
2021/12/24 02:53:58;;;;;;;;;;;;;;;;;;5057227;28;19978;-73
2021/12/24 02:56:48;;;;;;;;;;;;;;;;;;5057069;28;19963;-73
2021/12/24 02:59:15;;;;;;;;;;;;;;;;;;5055857;28;19917;-73
2021/12/24 03:01:42;;;;;;;;;;;;;;;;;;5055626;28;20035;-73
2021/12/24 03:04:08;;;;;;;;;;;;;;;;;;5056642;28;19917;-73
2021/12/24 03:06:35;;;;;;;;;;;;;;;;;;5055499;28;19921;-73
2021/12/24 03:09:02;;;;;;;;;;;;;;;;;;5054277;28;19921;-73
2021/12/24 03:11:27;;;;;;;;;;;;;;;;;;5055553;28;20352;-73
2021/12/24 03:13:53;;;;;;;;;;;;;;;;;;5038773;28;19956;-73
2021/12/24 03:16:20;;;;;;;;;;;;;;;;;;5055372;28;19996;-73
2021/12/24 03:18:46;;;;;;;;;;;;;;;;;;5055305;28;19948;-73
2021/12/24 03:21:17;;;;;;;;;;;;;;;;;;5038765;28;20336;-73
2021/12/24 03:26:32;;;;;;;;;;;;;;;;;;5023813;28;19968;-74
2021/12/24 03:28:57;;;;;;;;;;;;;;;;;;5055462;28;19924;-73
2021/12/24 03:31:23;;;;;;;;;;;;;;;;;;5056427;28;20294;-73
2021/12/24 03:33:53;;;;;;;;;;;;;;;;;;5054897;28;19916;-73
2021/12/24 03:36:19;;;;;;;;;;;;;;;;;;5055043;28;19917;-73
2021/12/24 03:38:44;;;;;;;;;;;;;;;;;;5055070;28;20024;-73
2021/12/24 03:41:10;;;;;;;;;;;;;;;;;;5055015;28;20144;-73
2021/12/24 03:43:35;;;;;;;;;;;;;;;;;;5054599;28;19917;-73
2021/12/24 03:46:05;;;;;;;;;;;;;;;;;;5054700;28;19967;-74
2021/12/24 03:56:25;;;;;;;;;;;;;;;;;;5054567;28;20368;-73
2021/12/24 03:58:50;;;;;;;;;;;;;;;;;;5054658;28;20003;-73
2021/12/24 04:01:48;;;;;;;;;;;;;;;;;;5055717;28;19920;-73
2021/12/24 04:04:32;;;;;;;;;;;;;;;;;;5053671;28;19975;-74
2021/12/24 04:07:16;;;;;;;;;;;;;;;;;;5054417;28;19982;-74
2021/12/24 04:10:04;;;;;;;;;;;;;;;;;;5055685;28;19924;-74
2021/12/24 04:12:58;;;;;;;;;;;;;;;;;;5055690;28;19924;-74
2021/12/24 04:15:24;;;;;;;;;;;;;;;;;;5054412;28;19917;-74
2021/12/24 04:17:49;;;;;;;;;;;;;;;;;;5055505;28;19924;-73
2021/12/24 04:25:44;;;;;;;;;;;;;;;;;;5054231;28;19917;-74
2021/12/24 04:28:10;;;;;;;;;;;;;;;;;;5054406;28;19928;-74
2021/12/24 04:30:42;;;;;;;;;;;;;;;;;;5055073;28;20289;-74
2021/12/24 04:33:16;;;;;;;;;;;;;;;;;;5053980;28;19924;-74
2021/12/24 04:35:56;;;;;;;;;;;;;;;;;;5053860;28;19960;-73
2021/12/24 04:51:47;;;;;;;;;;;;;;;;;;5053018;28;20012;-74
2021/12/24 05:05:19;;;;;;;;;;;;;;;;;;5028979;28;19917;-74
2021/12/24 05:10:15;;;;;;;;;;;;;;;;;;5033338;28;19924;-74
2021/12/24 05:12:41;;;;;;;;;;;;;;;;;;5033929;28;19917;-74
2021/12/24 05:15:09;;;;;;;;;;;;;;;;;;5036647;28;19917;-74
2021/12/24 05:18:27;;;;;;;;;;;;;;;;;;5053040;28;19917;-75
2021/12/24 05:21:33;;;;;;;;;;;;;;;;;;5039599;28;20390;-74
2021/12/24 05:24:10;;;;;;;;;;;;;;;;;;5053051;28;19924;-76
2021/12/24 05:26:35;;;;;;;;;;;;;;;;;;5053026;28;19921;-76
2021/12/24 05:29:02;;;;;;;;;;;;;;;;;;5052807;28;20378;-76
2021/12/24 05:31:28;;;;;;;;;;;;;;;;;;5053035;28;19917;-76
2021/12/24 05:33:53;;;;;;;;;;;;;;;;;;5051756;28;19917;-76
2021/12/24 05:36:21;;;;;;;;;;;;;;;;;;5053879;28;19920;-76
2021/12/24 05:38:47;;;;;;;;;;;;;;;;;;5052755;28;19921;-75
2021/12/24 05:41:13;;;;;;;;;;;;;;;;;;5053949;28;20267;-75
2021/12/24 05:43:40;;;;;;;;;;;;;;;;;;5053808;28;19917;-75
2021/12/24 05:46:06;;;;;;;;;;;;;;;;;;5036020;28;20283;-75
2021/12/24 05:48:46;;;;;;;;;;;;;;;;;;5052321;28;19966;-76
2021/12/24 05:51:11;;;;;;;;;;;;;;;;;;5052360;28;19921;-75
2021/12/24 05:54:00;;;;;;;;;;;;;;;;;;5053276;28;19967;-74
2021/12/24 05:56:28;;;;;;;;;;;;;;;;;;5052402;28;19917;-75
2021/12/24 05:59:04;;;;;;;;;;;;;;;;;;5052507;28;19917;-76
2021/12/24 06:01:30;;;;;;;;;;;;;;;;;;5052351;28;19917;-76
2021/12/24 06:03:55;;;;;;;;;;;;;;;;;;5052364;28;19917;-76
2021/12/24 06:06:21;;;;;;;;;;;;;;;;;;5052536;28;19921;-76
2021/12/24 06:08:47;;;;;;;;;;;;;;;;;;5053506;28;19923;-75
2021/12/24 06:11:12;;;;;;;;;;;;;;;;;;5053448;28;19916;-75
2021/12/24 06:13:38;;;;;;;;;;;;;;;;;;5051710;28;19943;-75
2021/12/24 06:16:05;;;;;;;;;;;;;;;;;;5050820;28;19924;-74
2021/12/24 06:18:30;;;;;;;;;;;;;;;;;;5050192;28;19925;-76
2021/12/24 06:20:57;;;;;;;;;;;;;;;;;;5051463;28;19963;-76
2021/12/24 06:23:24;;;;;;;;;;;;;;;;;;5051445;28;19939;-75
2021/12/24 06:25:50;;;;;;;;;;;;;;;;;;5049545;28;20004;-76
2021/12/24 06:28:15;;;;;;;;;;;;;;;;;;5052108;28;19960;-76
2021/12/24 06:30:41;;;;;;;;;;;;;;;;;;5053399;28;19921;-75
2021/12/24 06:33:07;;;;;;;;;;;;;;;;;;5053021;28;20384;-75
2021/12/24 06:35:32;;;;;;;;;;;;;;;;;;5051639;28;20011;-75
2021/12/24 06:37:58;;;;;;;;;;;;;;;;;;5053084;28;19928;-75
2021/12/24 06:40:23;;;;;;;;;;;;;;;;;;5053240;28;20405;-76
2021/12/24 06:42:49;;;;;;;;;;;;;;;;;;5052398;28;19916;-76
2021/12/24 06:45:19;;;;;;;;;;;;;;;;;;5053282;28;19924;-76
2021/12/24 06:47:44;;;;;;;;;;;;;;;;;;5053152;28;19931;-75
2021/12/24 06:50:09;;;;;;;;;;;;;;;;;;5051509;28;19929;-76
2021/12/24 06:52:35;;;;;;;;;;;;;;;;;;5053252;28;19959;-75
2021/12/24 06:55:00;;;;;;;;;;;;;;;;;;5053153;28;19928;-75
2021/12/24 06:57:26;;;;;;;;;;;;;;;;;;5052084;28;19967;-77
2021/12/24 06:59:52;;;;;;;;;;;;;;;;;;5052628;28;19917;-78
2021/12/24 07:02:18;;;;;;;;;;;;;;;;;;5054437;28;19921;-78
2021/12/24 07:04:43;;;;;;;;;;;;;;;;;;5052711;28;19920;-78
2021/12/24 07:07:09;;;;;;;;;;;;;;;;;;5056714;28;19920;-78
2021/12/24 07:09:34;;;;;;;;;;;;;;;;;;5054186;28;19913;-77
2021/12/24 07:12:00;;;;;;;;;;;;;;;;;;5051733;28;20003;-78
2021/12/24 07:14:26;;;;;;;;;;;;;;;;;;5053687;28;20374;-77
2021/12/24 07:16:51;;;;;;;;;;;;;;;;;;5053096;28;19920;-77
2021/12/24 07:19:16;;;;;;;;;;;;;;;;;;5054561;28;19920;-77
2021/12/24 07:21:42;;;;;;;;;;;;;;;;;;5037657;28;19917;-77
2021/12/24 07:24:07;;;;;;;;;;;;;;;;;;5056601;28;20382;-76
2021/12/24 07:26:33;;;;;;;;;;;;;;;;;;5056468;28;19925;-76
2021/12/24 07:29:01;;;;;;;;;;;;;;;;;;5056430;28;19955;-76
2021/12/24 07:31:26;;;;;;;;;;;;;;;;;;5056439;28;19939;-76
2021/12/24 07:33:52;;;;;;;;;;;;;;;;;;5055070;28;20354;-76
2021/12/24 07:36:17;;;;;;;;;;;;;;;;;;5056225;28;19921;-76
2021/12/24 07:38:42;;;;;;;;;;;;;;;;;;5056081;28;19917;-75
2021/12/24 07:41:08;;;;;;;;;;;;;;;;;;5056094;28;19980;-76
2021/12/24 07:43:33;;;;;;;;;;;;;;;;;;5054896;28;19917;-75
2021/12/24 07:45:59;;;;;;;;;;;;;;;;;;5056336;28;19920;-75
2021/12/24 07:48:29;;;;;;;;;;;;;;;;;;5055941;28;19983;-75
2021/12/24 07:53:20;;;;;;;;;;;;;;;;;;5054885;28;20488;-75
2021/12/24 07:55:45;;;;;;;;;;;;;;;;;;5055796;28;19971;-75
2021/12/24 07:58:17;;;;;;;;;;;;;;;;;;5055779;28;19921;-75
2021/12/24 08:00:42;;;;;;;;;;;;;;;;;;5055717;28;20011;-75
2021/12/24 08:03:08;;;;;;;;;;;;;;;;;;5055180;28;19967;-76
2021/12/24 08:05:35;;;;;;;;;;;;;;;;;;5055997;28;20003;-77
2021/12/24 08:08:00;;;;;;;;;;;;;;;;;;5058334;28;19920;-78
2021/12/24 08:10:27;;;;;;;;;;;;;;;;;;5056904;28;19917;-76
2021/12/24 08:12:53;;;;;;;;;;;;;;;;;;5054665;28;19916;-77
2021/12/24 08:15:18;;;;;;;;;;;;;;;;;;5055641;28;20008;-77
2021/12/24 08:17:44;;;;;;;;;;;;;;;;;;5056245;28;19927;-79
2021/12/24 08:20:10;;;;;;;;;;;;;;;;;;5060684;28;20297;-79
2021/12/24 08:22:36;;;;;;;;;;;;;;;;;;5062452;28;19917;-82
2021/12/24 08:25:05;;;;;;;;;;;;;;;;;;5062355;28;19928;-79
2021/12/24 08:27:31;;;;;;;;;;;;;;;;;;5057530;28;20604;-76
2021/12/24 08:29:56;;;;;;;;;;;;;;;;;;5054468;28;19917;-76
2021/12/24 08:32:22;;;;;;;;;;;;;;;;;;5054458;28;19917;-77
2021/12/24 08:34:48;;;;;;;;;;;;;;;;;;5054455;28;19939;-76
2021/12/24 08:37:13;;;;;;;;;;;;;;;;;;5055246;28;19917;-78
2021/12/24 08:39:39;;;;;;;;;;;;;;;;;;5038202;28;19917;-76
2021/12/24 08:42:04;;;;;;;;;;;;;;;;;;5053794;28;19917;-76
2021/12/24 08:44:31;;;;;;;;;;;;;;;;;;5054926;28;20011;-75
2021/12/24 08:47:00;;;;;;;;;;;;;;;;;;5053715;28;19955;-75
2021/12/24 08:49:26;;;;;;;;;;;;;;;;;;5054840;28;19943;-75
2021/12/24 08:51:51;;;;;;;;;;;;;;;;;;5054872;28;19920;-75
2021/12/24 08:54:17;;;;;;;;;;;;;;;;;;5054942;28;19920;-75
2021/12/24 08:56:43;;;;;;;;;;;;;;;;;;5054501;28;19917;-75
2021/12/24 08:59:08;;;;;;;;;;;;;;;;;;5054431;28;20293;-75
2021/12/24 09:01:33;;;;;;;;;;;;;;;;;;5054643;28;19969;-76
2021/12/24 09:03:59;;;;;;;;;;;;;;;;;;5054646;28;19916;-77
2021/12/24 09:06:25;;;;;;;;;;;;;;;;;;5054813;28;20286;-77
2021/12/24 09:08:50;;;;;;;;;;;;;;;;;;5053120;28;19917;-77
2021/12/24 09:11:15;;;;;;;;;;;;;;;;;;5046590;28;19934;-77
2021/12/24 09:13:41;;;;;;;;;;;;;;;;;;5034791;28;20367;-77
2021/12/24 09:16:06;;;;;;;;;;;;;;;;;;5034323;28;20337;-76
2021/12/24 09:18:32;;;;;;;;;;;;;;;;;;5033450;28;19951;-77
2021/12/24 09:21:01;;;;;;;;;;;;;;;;;;5033837;28;19924;-75
2021/12/24 09:23:26;;;;;;;;;;;;;;;;;;5033303;28;19917;-75
2021/12/24 09:25:51;;;;;;;;;;;;;;;;;;5034358;28;19944;-74
2021/12/24 09:28:17;;;;;;;;;;;;;;;;;;5033855;28;19921;-77
2021/12/24 09:30:42;;;;;;;;;;;;;;;;;;5034423;28;19971;-77
2021/12/24 09:33:07;;;;;;;;;;;;;;;;;;5034446;28;19917;-77
2021/12/24 09:35:33;;;;;;;;;;;;;;;;;;5048052;28;19917;-76
2021/12/24 09:37:58;;;;;;;;;;;;;;;;;;5053511;28;19917;-77
2021/12/24 09:40:24;;;;;;;;;;;;;;;;;;5053660;28;19921;-74
2021/12/24 09:42:49;;;;;;;;;;;;;;;;;;5053931;28;19963;-73
2021/12/24 09:45:15;;;;;;;;;;;;;;;;;;5053617;28;19939;-73
2021/12/24 09:47:41;;;;;;;;;;;;;;;;;;5054145;28;19931;-74
2021/12/24 09:50:07;;;;;;;;;;;;;;;;;;5053928;28;20285;-74
2021/12/24 09:52:33;;;;;;;;;;;;;;;;;;5053053;28;19916;-74
2021/12/24 09:55:05;;;;;;;;;;;;;;;;;;5053907;28;19916;-74
2021/12/24 09:57:31;;;;;;;;;;;;;;;;;;5052628;28;20087;-74
2021/12/24 09:59:56;;;;;;;;;;;;;;;;;;5053602;28;19919;-75
2021/12/24 10:02:28;;;;;;;;;;;;;;;;;;5053545;28;20416;-74
2021/12/24 10:04:53;;;;;;;;;;;;;;;;;;5053627;28;20378;-75
2021/12/24 10:07:24;;;;;;;;;;;;;;;;;;5052600;28;19921;-75
2021/12/24 10:10:04;;;;;;;;;;;;;;;;;;5052690;28;19921;-73
2021/12/24 10:12:30;;;;;;;;;;;;;;;;;;5053513;28;19917;-74
2021/12/24 10:15:01;;;;;;;;;;;;;;;;;;5053453;28;19917;-74
2021/12/24 10:17:38;;;;;;;;;;;;;;;;;;5053461;28;20336;-74
2021/12/24 10:20:17;;;;;;;;;;;;;;;;;;5052219;28;19967;-74
2021/12/24 10:22:48;;;;;;;;;;;;;;;;;;5053507;28;20354;-73
2021/12/24 10:25:13;;;;;;;;;;;;;;;;;;5053326;28;19917;-74
2021/12/24 10:27:40;;;;;;;;;;;;;;;;;;5051089;28;19928;-74
2021/12/24 10:30:15;;;;;;;;;;;;;;;;;;5053453;28;19923;-74
2021/12/24 10:32:40;;;;;;;;;;;;;;;;;;5053513;28;19917;-75
2021/12/24 10:35:17;;;;;;;;;;;;;;;;;;5053472;28;19916;-74
2021/12/24 10:38:28;;;;;;;;;;;;;;;;;;;;;
2021/12/24 10:41:06;;;;;;;;;;;;;;;;;;5042975;28;19923;-73
2021/12/24 10:43:35;;;;;;;;;;;;;;;;;;5053346;28;19927;-74
2021/12/24 10:46:07;;;;;;;;;;;;;;;;;;5013555;28;19925;-73
2021/12/24 10:48:33;;;;;;;;;;;;;;;;;;5012291;28;20294;-74
2021/12/24 10:51:06;;;;;;;;;;;;;;;;;;5030743;28;19923;-74
2021/12/24 10:53:51;;;;;;;;;;;;;;;;;;5035171;28;19921;-74
2021/12/24 10:56:23;;;;;;;;;;;;;;;;;;5036782;28;19959;-74
2021/12/24 10:58:49;;;;;;;;;;;;;;;;;;5037116;28;19917;-75
2021/12/24 11:01:15;;;;;;;;;;;;;;;;;;5035812;28;20413;-74
2021/12/24 11:03:43;;;;;;;;;;;;;;;;;;5035589;28;19921;-75
2021/12/24 11:06:09;;;;;;;;;;;;;;;;;;5042124;28;19963;-74
2021/12/24 11:08:35;;;;;;;;;;;;;;;;;;5056469;28;19964;-74
2021/12/24 11:11:04;;;;;;;;;;;;;;;;;;5056896;28;20290;-74
2021/12/24 11:13:39;;;;;;;;;;;;;;;;;;5056873;28;20370;-74
2021/12/24 11:16:06;;;;;;;;;;;;;;;;;;5056628;28;19963;-74
2021/12/24 11:18:36;;;;;;;;;;;;;;;;;;5056581;28;19928;-76
2021/12/24 11:21:02;;;;;;;;;;;;;;;;;;5056533;28;19921;-74
2021/12/24 11:23:29;;;;;;;;;;;;;;;;;;5055063;28;19923;-75
2021/12/24 11:26:05;;;;;;;;;;;;;;;;;;5055366;28;19917;-76
2021/12/24 11:28:32;;;;;;;;;;;;;;;;;;5055251;28;20011;-74
2021/12/24 11:31:00;;;;;;;;;;;;;;;;;;5055330;28;20015;-75
2021/12/24 11:33:27;;;;;;;;;;;;;;;;;;5055333;28;20297;-76
2021/12/24 11:35:53;;;;;;;;;;;;;;;;;;5054123;28;19917;-76
2021/12/24 11:38:29;;;;;;;;;;;;;;;;;;5056638;28;19920;-76
2021/12/24 11:40:55;;;;;;;;;;;;;;;;;;5055215;28;20366;-75
2021/12/24 11:43:22;;;;;;;;;;;;;;;;;;5056216;28;19923;-75
2021/12/24 11:45:49;;;;;;;;;;;;;;;;;;5056242;28;19916;-73
2021/12/24 11:48:15;;;;;;;;;;;;;;;;;;5055955;28;19921;-76
2021/12/24 11:50:45;;;;;;;;;;;;;;;;;;5057884;28;19917;-77
2021/12/24 11:53:17;;;;;;;;;;;;;;;;;;5037897;28;19920;-77
2021/12/24 11:55:44;;;;;;;;;;;;;;;;;;5054369;28;20417;-78
2021/12/24 11:58:19;;;;;;;;;;;;;;;;;;5054915;28;19970;-77
2021/12/24 12:00:46;;;;;;;;;;;;;;;;;;5053357;28;19928;-77
2021/12/24 12:03:29;;;;;;;;;;;;;;;;;;5034544;28;19960;-77
2021/12/24 12:05:54;;;;;;;;;;;;;;;;;;5034614;28;19923;-76
2021/12/24 12:08:23;;;;;;;;;;;;;;;;;;5031487;28;20008;-75
2021/12/24 12:10:49;;;;;;;;;;;;;;;;;;5035424;28;20364;-75
2021/12/24 12:13:33;;;;;;;;;;;;;;;;;;5034205;28;19971;-75
2021/12/24 12:15:59;;;;;;;;;;;;;;;;;;5035425;28;19963;-75
2021/12/24 12:18:33;;;;;;;;;;;;;;;;;;5018020;28;20386;-76
2021/12/24 12:21:33;;;;;;;;;;;;;;;;;;5035826;28;19916;-75
2021/12/24 12:26:38;;;;;;;;;;;;;;;;;;5047145;28;19967;-76
2021/12/24 12:29:37;;;;;;;;;;;;;;;;;;5027860;28;19924;-76
2021/12/24 12:32:13;;;;;;;;;;;;;;;;;;5019910;28;20350;-76
2021/12/24 12:34:38;;;;;;;;;;;;;;;;;;5043268;28;19963;-76
2021/12/24 12:37:12;;;;;;;;;;;;;;;;;;5055060;28;19917;-76
2021/12/24 12:39:38;;;;;;;;;;;;;;;;;;5055203;28;19924;-76
2021/12/24 12:42:04;;;;;;;;;;;;;;;;;;5054975;28;19917;-76
2021/12/24 12:44:29;;;;;;;;;;;;;;;;;;5033470;28;19921;-76
2021/12/24 12:47:08;;;;;;;;;;;;;;;;;;5030436;28;20034;-76
2021/12/24 12:49:35;;;;;;;;;;;;;;;;;;5016159;28;20374;-73
2021/12/24 12:52:03;;;;;;;;;;;;;;;;;;5022619;28;19917;-73
2021/12/24 12:54:34;;;;;;;;;;;;;;;;;;5030485;28;19917;-73
2021/12/24 12:57:08;;;;;;;;;;;;;;;;;;5033583;28;19923;-73
2021/12/24 12:59:33;;;;;;;;;;;;;;;;;;5036461;28;20374;-73
2021/12/24 13:01:59;;;;;;;;;;;;;;;;;;5054569;28;19943;-74
2021/12/24 13:04:25;;;;;;;;;;;;;;;;;;5030803;28;19918;-73
2021/12/24 13:06:51;;;;;;;;;;;;;;;;;;5021920;28;19945;-73
2021/12/24 13:09:19;;;;;;;;;;;;;;;;;;5022341;28;19963;-73
2021/12/24 13:11:46;;;;;;;;;;;;;;;;;;5021759;28;19921;-73
2021/12/24 13:14:12;;;;;;;;;;;;;;;;;;5015048;28;20026;-73
2021/12/24 13:22:28;;;;;;;;;;;;;;;;;;5054267;28;20329;-73
2021/12/24 13:24:54;;;;;;;;;;;;;;;;;;5054396;28;19924;-73
2021/12/24 13:27:24;;;;;;;;;;;;;;;;;;5054091;28;19921;-73
2021/12/24 13:30:02;;;;;;;;;;;;;;;;;;5054283;28;19971;-73
2021/12/24 13:32:27;;;;;;;;;;;;;;;;;;5054129;28;19924;-73
2021/12/24 13:34:56;;;;;;;;;;;;;;;;;;5054233;28;19912;-73
2021/12/24 13:37:21;;;;;;;;;;;;;;;;;;5054104;28;20331;-73
2021/12/24 13:39:48;;;;;;;;;;;;;;;;;;5054038;28;19916;-73
2021/12/24 13:42:13;;;;;;;;;;;;;;;;;;5054174;28;20014;-73
2021/12/24 13:44:39;;;;;;;;;;;;;;;;;;5054086;28;19999;-73
2021/12/24 13:47:20;;;;;;;;;;;;;;;;;;5053889;28;20381;-73
2021/12/24 13:55:23;;;;;;;;;;;;;;;;;;5052697;28;19923;-73
2021/12/24 13:57:52;;;;;;;;;;;;;;;;;;5054028;28;19916;-73
2021/12/24 14:00:18;;;;;;;;;;;;;;;;;;5036077;28;20289;-73
2021/12/24 14:02:49;;;;;;;;;;;;;;;;;;5053533;28;20370;-73
2021/12/24 14:05:15;;;;;;;;;;;;;;;;;;5052314;28;19917;-73
2021/12/24 14:07:46;;;;;;;;;;;;;;;;;;5053298;28;19925;-73
2021/12/24 14:10:21;;;;;;;;;;;;;;;;;;5053598;28;20083;-73
2021/12/24 14:12:46;;;;;;;;;;;;;;;;;;5053484;28;20007;-73
2021/12/24 14:15:14;;;;;;;;;;;;;;;;;;5053478;28;20425;-73
2021/12/24 14:18:06;;;;;;;;;;;;;;;;;;5053763;28;19921;-73
2021/12/24 14:21:44;;;;;;;;;;;;;;;;;;5052211;28;19964;-73
2021/12/24 14:23:33;;;;;;;;;;;;;;;;;;5053225;28;19917;-73
2021/12/24 14:25:59;;;;;;;;;;;;;;;;;;5052249;28;19970;-73
2021/12/24 14:28:25;;;;;;;;;;;;;;;;;;5051460;28;19960;-73
2021/12/24 14:30:57;;;;;;;;;;;;;;;;;;5053445;28;20278;-73
2021/12/24 14:33:23;;;;;;;;;;;;;;;;;;5053458;28;19917;-73
2021/12/24 14:35:52;;;;;;;;;;;;;;;;;;5052260;28;19917;-73
2021/12/24 14:38:18;;;;;;;;;;;;;;;;;;5053217;28;19917;-73
2021/12/24 14:40:43;;;;;;;;;;;;;;;;;;5052233;28;19917;-73
2021/12/24 14:43:10;;;;;;;;;;;;;;;;;;5053060;28;19923;-73
2021/12/24 14:45:36;;;;;;;;;;;;;;;;;;5053212;28;20291;-74
2021/12/24 14:48:02;;;;;;;;;;;;;;;;;;5053173;28;19931;-73
2021/12/24 14:50:28;;;;;;;;;;;;;;;;;;5052244;28;20007;-73
2021/12/24 14:53:05;;;;;;;;;;;;;;;;;;5053313;28;19921;-73
2021/12/24 14:55:38;;;;;;;;;;;;;;;;;;5050766;28;19923;-73
2021/12/24 14:58:03;;;;;;;;;;;;;;;;;;5052959;28;19913;-73
2021/12/24 15:00:33;;;;;;;;;;;;;;;;;;5052907;28;19916;-73
2021/12/24 15:03:02;;;;;;;;;;;;;;;;;;5035060;28;20259;-73
2021/12/24 15:05:30;;;;;;;;;;;;;;;;;;5053174;28;20368;-73
2021/12/24 15:07:57;;;;;;;;;;;;;;;;;;5046607;28;19929;-73
2021/12/24 15:10:22;;;;;;;;;;;;;;;;;;5033031;28;19917;-73
2021/12/24 15:12:57;;;;;;;;;;;;;;;;;;5033069;28;20268;-73
2021/12/24 15:15:23;;;;;;;;;;;;;;;;;;5041056;28;19917;-73
2021/12/24 15:17:49;;;;;;;;;;;;;;;;;;5051856;28;19920;-73
2021/12/24 15:20:14;;;;;;;;;;;;;;;;;;5053101;28;19969;-73
2021/12/24 15:22:39;;;;;;;;;;;;;;;;;;5052862;28;19916;-73
2021/12/24 15:25:06;;;;;;;;;;;;;;;;;;5052752;28;20382;-73
2021/12/24 15:27:34;;;;;;;;;;;;;;;;;;5050489;28;19924;-73
2021/12/24 15:30:00;;;;;;;;;;;;;;;;;;5052800;28;20407;-73
2021/12/24 15:32:25;;;;;;;;;;;;;;;;;;5052879;28;19917;-73
2021/12/24 15:34:50;;;;;;;;;;;;;;;;;;5051925;28;19924;-73
2021/12/24 15:37:16;;;;;;;;;;;;;;;;;;5052676;28;19917;-73
2021/12/24 15:39:41;;;;;;;;;;;;;;;;;;5054705;28;19921;-72
2021/12/24 15:42:07;;;;;;;;;;;;;;;;;;5038601;28;19917;-73
2021/12/24 15:44:34;;;;;;;;;;;;;;;;;;5055157;28;19917;-73
2021/12/24 15:46:59;;;;;;;;;;;;;;;;;;5055773;28;20285;-73
2021/12/24 15:49:25;;;;;;;;;;;;;;;;;;5056151;28;19917;-73
2021/12/24 15:51:50;;;;;;;;;;;;;;;;;;5052342;28;19924;-72
2021/12/24 15:54:16;;;;;;;;;;;;;;;;;;5035777;28;19913;-74
2021/12/24 15:56:41;;;;;;;;;;;;;;;;;;5035412;28;20290;-73
2021/12/24 15:59:06;;;;;;;;;;;;;;;;;;5035551;28;19956;-74
2021/12/24 16:01:31;;;;;;;;;;;;;;;;;;5035562;28;19917;-74
2021/12/24 16:03:57;;;;;;;;;;;;;;;;;;5034922;28;20416;-72
2021/12/24 16:06:22;;;;;;;;;;;;;;;;;;5034841;28;19916;-72
2021/12/24 16:08:47;;;;;;;;;;;;;;;;;;5035527;28;19921;-71
2021/12/24 16:11:13;;;;;;;;;;;;;;;;;;5035522;28;19963;-73
2021/12/24 16:13:38;;;;;;;;;;;;;;;;;;5033611;28;20016;-74
2021/12/24 16:16:05;;;;;;;;;;;;;;;;;;5035380;28;19924;-74
2021/12/24 16:18:31;;;;;;;;;;;;;;;;;;5041086;28;19969;-73
2021/12/24 16:20:57;;;;;;;;;;;;;;;;;;5055525;28;19917;-73
2021/12/24 16:23:23;;;;;;;;;;;;;;;;;;5053613;28;20015;-73
2021/12/24 16:25:49;;;;;;;;;;;;;;;;;;5055525;28;19959;-73
2021/12/24 16:28:14;;;;;;;;;;;;;;;;;;5055100;28;19925;-72
2021/12/24 16:30:40;;;;;;;;;;;;;;;;;;5055102;28;20532;-73
2021/12/24 16:33:05;;;;;;;;;;;;;;;;;;5053509;28;20003;-73
2021/12/24 16:35:33;;;;;;;;;;;;;;;;;;5052649;28;19953;-73
2021/12/24 16:37:58;;;;;;;;;;;;;;;;;;5055183;28;20340;-73
2021/12/24 16:40:24;;;;;;;;;;;;;;;;;;5054484;28;20020;-73
2021/12/24 16:42:54;;;;;;;;;;;;;;;;;;5054512;28;19940;-73
2021/12/24 16:45:20;;;;;;;;;;;;;;;;;;5053360;28;19917;-73
2021/12/24 16:47:45;;;;;;;;;;;;;;;;;;5054867;28;20374;-73
2021/12/24 16:50:11;;;;;;;;;;;;;;;;;;5052856;28;19921;-73
2021/12/24 16:52:36;;;;;;;;;;;;;;;;;;5053248;28;19916;-73
2021/12/24 16:55:02;;;;;;;;;;;;;;;;;;5055127;28;19917;-74
2021/12/24 16:57:27;;;;;;;;;;;;;;;;;;5054875;28;19978;-73
2021/12/24 16:59:53;;;;;;;;;;;;;;;;;;5054913;28;19920;-73
2021/12/24 17:02:18;;;;;;;;;;;;;;;;;;5054772;28;19927;-74
2021/12/24 17:04:44;;;;;;;;;;;;;;;;;;5053588;28;20400;-74
2021/12/24 17:07:11;;;;;;;;;;;;;;;;;;5054669;28;19964;-74
2021/12/24 17:09:40;;;;;;;;;;;;;;;;;;5053533;28;20165;-74
2021/12/24 17:12:05;;;;;;;;;;;;;;;;;;5054731;28;19939;-74
2021/12/24 17:14:34;;;;;;;;;;;;;;;;;;5054334;28;20019;-74
2021/12/24 17:17:00;;;;;;;;;;;;;;;;;;5054486;28;19917;-74
2021/12/24 17:19:25;;;;;;;;;;;;;;;;;;5053046;28;19923;-74
2021/12/24 17:21:50;;;;;;;;;;;;;;;;;;5054407;28;20281;-74
2021/12/24 17:24:16;;;;;;;;;;;;;;;;;;5054346;28;20270;-74
2021/12/24 17:26:42;;;;;;;;;;;;;;;;;;5054734;28;19927;-74
2021/12/24 17:29:09;;;;;;;;;;;;;;;;;;5053158;28;20475;-74
2021/12/24 17:31:35;;;;;;;;;;;;;;;;;;5054072;28;20386;-74
2021/12/24 17:34:00;;;;;;;;;;;;;;;;;;5053559;28;19925;-74
2021/12/24 17:36:25;;;;;;;;;;;;;;;;;;5054086;28;19921;-74
2021/12/24 17:38:51;;;;;;;;;;;;;;;;;;5054078;28;19921;-74
2021/12/24 17:41:17;;;;;;;;;;;;;;;;;;5054038;28;19923;-74
2021/12/24 17:43:42;;;;;;;;;;;;;;;;;;5052725;28;19927;-74
2021/12/24 17:46:07;;;;;;;;;;;;;;;;;;5051633;28;19917;-74
2021/12/24 17:48:34;;;;;;;;;;;;;;;;;;5053731;28;20426;-74
2021/12/24 17:51:00;;;;;;;;;;;;;;;;;;5053755;28;19917;-74
2021/12/24 17:53:27;;;;;;;;;;;;;;;;;;5052112;28;21400;-74
2021/12/24 17:55:52;;;;;;;;;;;;;;;;;;5053680;28;20269;-74
2021/12/24 17:58:19;;;;;;;;;;;;;;;;;;5053883;28;19916;-74
2021/12/24 18:00:44;;;;;;;;;;;;;;;;;;5053843;28;19913;-74
2021/12/24 18:03:10;;;;;;;;;;;;;;;;;;5053418;28;20011;-74
2021/12/24 18:05:37;;;;;;;;;;;;;;;;;;5052568;28;19944;-74
2021/12/24 18:08:03;;;;;;;;;;;;;;;;;;5053464;28;19979;-74
2021/12/24 18:10:28;;;;;;;;;;;;;;;;;;5053588;28;19917;-74
2021/12/24 18:12:53;;;;;;;;;;;;;;;;;;5053507;28;19917;-74
2021/12/24 18:15:19;;;;;;;;;;;;;;;;;;5053545;28;20016;-74
2021/12/24 18:17:44;;;;;;;;;;;;;;;;;;5053318;28;20370;-74
2021/12/24 18:20:11;;;;;;;;;;;;;;;;;;5053331;28;19917;-74
2021/12/24 18:22:37;;;;;;;;;;;;;;;;;;5053528;28;19963;-74
2021/12/24 18:25:03;;;;;;;;;;;;;;;;;;5053485;28;19921;-74
2021/12/24 18:27:28;;;;;;;;;;;;;;;;;;5051028;28;19920;-74
2021/12/24 18:29:53;;;;;;;;;;;;;;;;;;5012273;28;20008;-74
2021/12/24 18:32:19;;;;;;;;;;;;;;;;;;5013845;28;20013;-74
2021/12/24 18:34:44;;;;;;;;;;;;;;;;;;5022852;28;19920;-74
2021/12/24 18:37:10;;;;;;;;;;;;;;;;;;5053341;28;20282;-74
2021/12/24 18:39:35;;;;;;;;;;;;;;;;;;5052082;28;19921;-74
2021/12/24 18:42:01;;;;;;;;;;;;;;;;;;5052171;28;19970;-74
2021/12/24 18:44:28;;;;;;;;;;;;;;;;;;5052136;28;19940;-74
2021/12/24 18:46:53;;;;;;;;;;;;;;;;;;5053040;28;19912;-74
2021/12/24 18:49:18;;;;;;;;;;;;;;;;;;5053345;28;19917;-73
2021/12/24 18:51:44;;;;;;;;;;;;;;;;;;5053249;28;19921;-73